sensor_id;sensor_type;location;lat;lon;timestamp;P1;durP1;ratioP1;P2;durP2;ratioP2
62696;SDS011;48761;42.680;23.312;2024-02-21T00:01:48;10.88;;;6.97;;
62696;SDS011;48761;42.680;23.312;2024-02-21T00:04:14;8.50;;;6.25;;
62696;SDS011;48761;42.680;23.312;2024-02-21T00:06:40;8.77;;;6.20;;
62696;SDS011;48761;42.680;23.312;2024-02-21T00:09:07;8.48;;;6.35;;
62696;SDS011;48761;42.680;23.312;2024-02-21T00:11:33;8.25;;;6.05;;
62696;SDS011;48761;42.680;23.312;2024-02-21T00:13:59;9.93;;;6.53;;
62696;SDS011;48761;42.680;23.312;2024-02-21T00:16:25;9.70;;;6.68;;
62696;SDS011;48761;42.680;23.312;2024-02-21T00:18:51;10.50;;;7.03;;
62696;SDS011;48761;42.680;23.312;2024-02-21T00:21:17;9.00;;;6.50;;
62696;SDS011;48761;42.680;23.312;2024-02-21T00:23:44;9.73;;;6.93;;
62696;SDS011;48761;42.680;23.312;2024-02-21T00:26:10;9.48;;;7.03;;
62696;SDS011;48761;42.680;23.312;2024-02-21T00:28:36;9.18;;;6.55;;
62696;SDS011;48761;42.680;23.312;2024-02-21T00:31:02;10.15;;;7.22;;
62696;SDS011;48761;42.680;23.312;2024-02-21T00:33:28;11.10;;;7.18;;
62696;SDS011;48761;42.680;23.312;2024-02-21T00:35:55;9.38;;;6.82;;
62696;SDS011;48761;42.680;23.312;2024-02-21T00:38:20;9.27;;;6.80;;
62696;SDS011;48761;42.680;23.312;2024-02-21T00:40:47;8.48;;;6.35;;
62696;SDS011;48761;42.680;23.312;2024-02-21T00:43:13;8.40;;;6.30;;
62696;SDS011;48761;42.680;23.312;2024-02-21T00:45:39;9.20;;;6.00;;
62696;SDS011;48761;42.680;23.312;2024-02-21T00:48:05;9.00;;;6.72;;
62696;SDS011;48761;42.680;23.312;2024-02-21T00:50:31;10.40;;;6.53;;
62696;SDS011;48761;42.680;23.312;2024-02-21T00:52:57;8.00;;;6.20;;
62696;SDS011;48761;42.680;23.312;2024-02-21T00:55:23;9.18;;;6.60;;
62696;SDS011;48761;42.680;23.312;2024-02-21T00:57:49;8.27;;;6.07;;
62696;SDS011;48761;42.680;23.312;2024-02-21T01:00:15;7.80;;;5.57;;
62696;SDS011;48761;42.680;23.312;2024-02-21T01:02:41;8.40;;;6.15;;
62696;SDS011;48761;42.680;23.312;2024-02-21T01:05:07;9.60;;;6.65;;
62696;SDS011;48761;42.680;23.312;2024-02-21T01:07:33;8.55;;;6.10;;
62696;SDS011;48761;42.680;23.312;2024-02-21T01:09:59;8.73;;;6.47;;
62696;SDS011;48761;42.680;23.312;2024-02-21T01:12:25;9.38;;;6.90;;
62696;SDS011;48761;42.680;23.312;2024-02-21T01:14:51;9.20;;;6.78;;
62696;SDS011;48761;42.680;23.312;2024-02-21T01:17:17;9.63;;;6.88;;
62696;SDS011;48761;42.680;23.312;2024-02-21T01:19:43;8.48;;;6.13;;
62696;SDS011;48761;42.680;23.312;2024-02-21T01:22:09;8.85;;;6.55;;
62696;SDS011;48761;42.680;23.312;2024-02-21T01:24:35;8.43;;;6.30;;
62696;SDS011;48761;42.680;23.312;2024-02-21T01:27:01;9.63;;;6.32;;
62696;SDS011;48761;42.680;23.312;2024-02-21T01:29:27;9.45;;;6.50;;
62696;SDS011;48761;42.680;23.312;2024-02-21T01:31:53;9.88;;;6.63;;
62696;SDS011;48761;42.680;23.312;2024-02-21T01:34:18;9.90;;;6.53;;
62696;SDS011;48761;42.680;23.312;2024-02-21T01:36:44;10.50;;;7.07;;
62696;SDS011;48761;42.680;23.312;2024-02-21T01:39:10;8.82;;;6.50;;
62696;SDS011;48761;42.680;23.312;2024-02-21T01:41:36;8.50;;;6.28;;
62696;SDS011;48761;42.680;23.312;2024-02-21T01:44:02;10.65;;;7.70;;
62696;SDS011;48761;42.680;23.312;2024-02-21T01:46:28;10.00;;;6.95;;
62696;SDS011;48761;42.680;23.312;2024-02-21T01:48:54;9.23;;;7.10;;
62696;SDS011;48761;42.680;23.312;2024-02-21T01:51:21;10.23;;;6.95;;
62696;SDS011;48761;42.680;23.312;2024-02-21T01:53:47;9.57;;;7.07;;
62696;SDS011;48761;42.680;23.312;2024-02-21T01:56:15;10.73;;;7.00;;
62696;SDS011;48761;42.680;23.312;2024-02-21T01:58:43;9.82;;;7.05;;
62696;SDS011;48761;42.680;23.312;2024-02-21T02:01:10;10.18;;;7.32;;
62696;SDS011;48761;42.680;23.312;2024-02-21T02:03:36;9.13;;;6.65;;
62696;SDS011;48761;42.680;23.312;2024-02-21T02:06:03;9.15;;;6.85;;
62696;SDS011;48761;42.680;23.312;2024-02-21T02:08:30;8.80;;;6.53;;
62696;SDS011;48761;42.680;23.312;2024-02-21T02:10:57;10.02;;;7.22;;
62696;SDS011;48761;42.680;23.312;2024-02-21T02:13:24;9.93;;;7.53;;
62696;SDS011;48761;42.680;23.312;2024-02-21T02:15:50;10.15;;;7.85;;
62696;SDS011;48761;42.680;23.312;2024-02-21T02:18:17;12.10;;;8.88;;
62696;SDS011;48761;42.680;23.312;2024-02-21T02:20:43;11.98;;;7.95;;
62696;SDS011;48761;42.680;23.312;2024-02-21T02:23:11;11.40;;;8.50;;
62696;SDS011;48761;42.680;23.312;2024-02-21T02:25:39;13.00;;;8.73;;
62696;SDS011;48761;42.680;23.312;2024-02-21T02:28:05;12.90;;;8.70;;
62696;SDS011;48761;42.680;23.312;2024-02-21T02:30:32;13.63;;;9.48;;
62696;SDS011;48761;42.680;23.312;2024-02-21T02:32:59;13.88;;;9.63;;
62696;SDS011;48761;42.680;23.312;2024-02-21T02:35:25;13.60;;;9.32;;
62696;SDS011;48761;42.680;23.312;2024-02-21T02:37:51;14.80;;;10.43;;
62696;SDS011;48761;42.680;23.312;2024-02-21T02:40:17;13.63;;;9.65;;
62696;SDS011;48761;42.680;23.312;2024-02-21T02:42:44;15.30;;;10.40;;
62696;SDS011;48761;42.680;23.312;2024-02-21T02:45:10;16.13;;;10.45;;
62696;SDS011;48761;42.680;23.312;2024-02-21T02:47:36;16.42;;;11.07;;
62696;SDS011;48761;42.680;23.312;2024-02-21T02:50:02;16.83;;;11.00;;
62696;SDS011;48761;42.680;23.312;2024-02-21T02:52:28;14.70;;;10.77;;
62696;SDS011;48761;42.680;23.312;2024-02-21T02:54:54;15.43;;;10.90;;
62696;SDS011;48761;42.680;23.312;2024-02-21T02:57:20;14.82;;;10.93;;
62696;SDS011;48761;42.680;23.312;2024-02-21T02:59:48;18.02;;;11.82;;
62696;SDS011;48761;42.680;23.312;2024-02-21T03:02:15;15.50;;;11.07;;
62696;SDS011;48761;42.680;23.312;2024-02-21T03:04:41;16.10;;;11.32;;
62696;SDS011;48761;42.680;23.312;2024-02-21T03:07:08;15.52;;;10.45;;
62696;SDS011;48761;42.680;23.312;2024-02-21T03:09:34;14.18;;;10.10;;
62696;SDS011;48761;42.680;23.312;2024-02-21T03:12:00;14.40;;;9.93;;
62696;SDS011;48761;42.680;23.312;2024-02-21T03:14:26;16.65;;;11.27;;
62696;SDS011;48761;42.680;23.312;2024-02-21T03:16:52;13.52;;;9.95;;
62696;SDS011;48761;42.680;23.312;2024-02-21T03:19:18;16.42;;;11.15;;
62696;SDS011;48761;42.680;23.312;2024-02-21T03:21:45;17.33;;;10.40;;
62696;SDS011;48761;42.680;23.312;2024-02-21T03:24:10;15.55;;;10.98;;
62696;SDS011;48761;42.680;23.312;2024-02-21T03:26:36;14.98;;;10.80;;
62696;SDS011;48761;42.680;23.312;2024-02-21T03:29:03;14.10;;;10.15;;
62696;SDS011;48761;42.680;23.312;2024-02-21T03:31:29;16.35;;;10.90;;
62696;SDS011;48761;42.680;23.312;2024-02-21T03:33:55;14.32;;;10.20;;
62696;SDS011;48761;42.680;23.312;2024-02-21T03:36:21;13.45;;;10.02;;
62696;SDS011;48761;42.680;23.312;2024-02-21T03:38:47;15.30;;;10.98;;
62696;SDS011;48761;42.680;23.312;2024-02-21T03:41:13;14.85;;;10.20;;
62696;SDS011;48761;42.680;23.312;2024-02-21T03:43:39;20.15;;;10.82;;
62696;SDS011;48761;42.680;23.312;2024-02-21T03:46:05;16.60;;;10.55;;
62696;SDS011;48761;42.680;23.312;2024-02-21T03:48:32;16.02;;;10.65;;
62696;SDS011;48761;42.680;23.312;2024-02-21T03:50:58;16.08;;;10.95;;
62696;SDS011;48761;42.680;23.312;2024-02-21T03:53:25;18.42;;;11.60;;
62696;SDS011;48761;42.680;23.312;2024-02-21T03:55:51;16.80;;;11.25;;
62696;SDS011;48761;42.680;23.312;2024-02-21T03:58:17;20.80;;;12.85;;
62696;SDS011;48761;42.680;23.312;2024-02-21T04:00:42;24.00;;;16.40;;
62696;SDS011;48761;42.680;23.312;2024-02-21T04:03:08;24.65;;;17.52;;
62696;SDS011;48761;42.680;23.312;2024-02-21T04:05:34;24.17;;;17.70;;
62696;SDS011;48761;42.680;23.312;2024-02-21T04:08:03;25.83;;;18.88;;
62696;SDS011;48761;42.680;23.312;2024-02-21T04:10:30;23.45;;;17.02;;
62696;SDS011;48761;42.680;23.312;2024-02-21T04:12:56;22.95;;;16.65;;
62696;SDS011;48761;42.680;23.312;2024-02-21T04:15:22;24.48;;;16.92;;
62696;SDS011;48761;42.680;23.312;2024-02-21T04:17:48;28.38;;;18.13;;
62696;SDS011;48761;42.680;23.312;2024-02-21T04:20:17;27.23;;;18.67;;
62696;SDS011;48761;42.680;23.312;2024-02-21T04:22:43;25.08;;;16.92;;
62696;SDS011;48761;42.680;23.312;2024-02-21T04:25:09;19.38;;;13.68;;
62696;SDS011;48761;42.680;23.312;2024-02-21T04:27:35;21.17;;;13.98;;
62696;SDS011;48761;42.680;23.312;2024-02-21T04:30:01;24.25;;;15.30;;
62696;SDS011;48761;42.680;23.312;2024-02-21T04:32:27;23.45;;;15.63;;
62696;SDS011;48761;42.680;23.312;2024-02-21T04:34:53;23.83;;;16.33;;
62696;SDS011;48761;42.680;23.312;2024-02-21T04:37:19;22.10;;;14.20;;
62696;SDS011;48761;42.680;23.312;2024-02-21T04:39:46;23.15;;;14.77;;
62696;SDS011;48761;42.680;23.312;2024-02-21T04:42:14;21.63;;;14.40;;
62696;SDS011;48761;42.680;23.312;2024-02-21T04:44:40;20.42;;;13.98;;
62696;SDS011;48761;42.680;23.312;2024-02-21T04:47:06;20.83;;;13.50;;
62696;SDS011;48761;42.680;23.312;2024-02-21T04:49:33;20.70;;;13.35;;
62696;SDS011;48761;42.680;23.312;2024-02-21T04:51:59;18.48;;;13.00;;
62696;SDS011;48761;42.680;23.312;2024-02-21T04:54:25;20.50;;;13.18;;
62696;SDS011;48761;42.680;23.312;2024-02-21T04:56:51;25.40;;;13.25;;
62696;SDS011;48761;42.680;23.312;2024-02-21T04:59:17;19.35;;;13.18;;
62696;SDS011;48761;42.680;23.312;2024-02-21T05:01:43;22.48;;;14.00;;
62696;SDS011;48761;42.680;23.312;2024-02-21T05:04:09;20.77;;;14.07;;
62696;SDS011;48761;42.680;23.312;2024-02-21T05:06:38;19.67;;;13.35;;
62696;SDS011;48761;42.680;23.312;2024-02-21T05:09:06;26.55;;;14.10;;
62696;SDS011;48761;42.680;23.312;2024-02-21T05:11:32;22.88;;;13.57;;
62696;SDS011;48761;42.680;23.312;2024-02-21T05:13:58;22.75;;;14.68;;
62696;SDS011;48761;42.680;23.312;2024-02-21T05:16:24;20.92;;;14.20;;
62696;SDS011;48761;42.680;23.312;2024-02-21T05:18:50;20.75;;;13.38;;
62696;SDS011;48761;42.680;23.312;2024-02-21T05:21:16;21.17;;;13.55;;
62696;SDS011;48761;42.680;23.312;2024-02-21T05:23:42;23.00;;;13.57;;
62696;SDS011;48761;42.680;23.312;2024-02-21T05:26:08;29.13;;;15.30;;
62696;SDS011;48761;42.680;23.312;2024-02-21T05:28:35;22.00;;;13.85;;
62696;SDS011;48761;42.680;23.312;2024-02-21T05:31:01;23.40;;;15.20;;
62696;SDS011;48761;42.680;23.312;2024-02-21T05:33:27;23.30;;;15.85;;
62696;SDS011;48761;42.680;23.312;2024-02-21T05:35:53;23.17;;;15.73;;
62696;SDS011;48761;42.680;23.312;2024-02-21T05:38:18;26.80;;;16.42;;
62696;SDS011;48761;42.680;23.312;2024-02-21T05:40:45;30.70;;;18.15;;
62696;SDS011;48761;42.680;23.312;2024-02-21T05:43:11;26.17;;;17.55;;
62696;SDS011;48761;42.680;23.312;2024-02-21T05:45:37;30.25;;;16.65;;
62696;SDS011;48761;42.680;23.312;2024-02-21T05:48:03;27.00;;;16.08;;
62696;SDS011;48761;42.680;23.312;2024-02-21T05:50:30;31.23;;;17.73;;
62696;SDS011;48761;42.680;23.312;2024-02-21T05:52:56;29.98;;;17.38;;
62696;SDS011;48761;42.680;23.312;2024-02-21T05:55:22;27.73;;;16.92;;
62696;SDS011;48761;42.680;23.312;2024-02-21T05:57:48;28.83;;;17.10;;
62696;SDS011;48761;42.680;23.312;2024-02-21T06:00:14;31.13;;;17.88;;
62696;SDS011;48761;42.680;23.312;2024-02-21T06:02:41;28.05;;;16.98;;
62696;SDS011;48761;42.680;23.312;2024-02-21T06:05:07;34.22;;;18.25;;
62696;SDS011;48761;42.680;23.312;2024-02-21T06:07:34;36.10;;;18.75;;
62696;SDS011;48761;42.680;23.312;2024-02-21T06:10:04;36.85;;;18.17;;
62696;SDS011;48761;42.680;23.312;2024-02-21T06:12:32;26.17;;;17.35;;
62696;SDS011;48761;42.680;23.312;2024-02-21T06:14:58;32.97;;;17.98;;
62696;SDS011;48761;42.680;23.312;2024-02-21T06:17:24;29.67;;;18.75;;
62696;SDS011;48761;42.680;23.312;2024-02-21T06:19:50;26.70;;;17.80;;
62696;SDS011;48761;42.680;23.312;2024-02-21T06:22:16;33.78;;;19.40;;
62696;SDS011;48761;42.680;23.312;2024-02-21T06:24:43;34.95;;;19.60;;
62696;SDS011;48761;42.680;23.312;2024-02-21T06:27:09;29.27;;;17.60;;
62696;SDS011;48761;42.680;23.312;2024-02-21T06:29:36;27.33;;;17.13;;
62696;SDS011;48761;42.680;23.312;2024-02-21T06:32:02;28.67;;;18.33;;
62696;SDS011;48761;42.680;23.312;2024-02-21T06:34:29;42.60;;;23.70;;
62696;SDS011;48761;42.680;23.312;2024-02-21T06:36:55;29.95;;;17.90;;
62696;SDS011;48761;42.680;23.312;2024-02-21T06:39:21;29.58;;;18.48;;
62696;SDS011;48761;42.680;23.312;2024-02-21T06:41:47;32.80;;;18.67;;
62696;SDS011;48761;42.680;23.312;2024-02-21T06:44:13;33.20;;;20.08;;
62696;SDS011;48761;42.680;23.312;2024-02-21T06:46:39;37.28;;;23.30;;
62696;SDS011;48761;42.680;23.312;2024-02-21T06:49:06;39.28;;;23.75;;
62696;SDS011;48761;42.680;23.312;2024-02-21T06:51:32;34.85;;;23.27;;
62696;SDS011;48761;42.680;23.312;2024-02-21T06:53:58;46.00;;;25.38;;
62696;SDS011;48761;42.680;23.312;2024-02-21T06:56:24;38.70;;;25.35;;
62696;SDS011;48761;42.680;23.312;2024-02-21T06:58:50;38.58;;;24.00;;
62696;SDS011;48761;42.680;23.312;2024-02-21T07:01:16;33.95;;;20.83;;
62696;SDS011;48761;42.680;23.312;2024-02-21T07:03:42;33.92;;;20.75;;
62696;SDS011;48761;42.680;23.312;2024-02-21T07:06:08;34.17;;;20.30;;
62696;SDS011;48761;42.680;23.312;2024-02-21T07:08:34;29.75;;;18.58;;
62696;SDS011;48761;42.680;23.312;2024-02-21T07:11:00;30.80;;;18.15;;
62696;SDS011;48761;42.680;23.312;2024-02-21T07:13:26;24.83;;;15.93;;
62696;SDS011;48761;42.680;23.312;2024-02-21T07:15:52;33.35;;;17.20;;
62696;SDS011;48761;42.680;23.312;2024-02-21T07:18:18;26.50;;;17.30;;
62696;SDS011;48761;42.680;23.312;2024-02-21T07:20:44;29.80;;;16.83;;
62696;SDS011;48761;42.680;23.312;2024-02-21T07:23:10;30.10;;;17.23;;
62696;SDS011;48761;42.680;23.312;2024-02-21T07:25:36;35.45;;;17.23;;
62696;SDS011;48761;42.680;23.312;2024-02-21T07:28:02;29.88;;;17.48;;
62696;SDS011;48761;42.680;23.312;2024-02-21T07:30:28;29.80;;;17.00;;
62696;SDS011;48761;42.680;23.312;2024-02-21T07:32:54;30.83;;;17.45;;
62696;SDS011;48761;42.680;23.312;2024-02-21T07:35:20;27.95;;;16.92;;
62696;SDS011;48761;42.680;23.312;2024-02-21T07:37:46;25.30;;;16.85;;
62696;SDS011;48761;42.680;23.312;2024-02-21T07:40:12;27.00;;;17.52;;
62696;SDS011;48761;42.680;23.312;2024-02-21T07:42:39;26.08;;;17.13;;
62696;SDS011;48761;42.680;23.312;2024-02-21T07:45:06;27.83;;;17.38;;
62696;SDS011;48761;42.680;23.312;2024-02-21T07:47:33;25.60;;;16.58;;
62696;SDS011;48761;42.680;23.312;2024-02-21T07:50:01;39.42;;;26.95;;
62696;SDS011;48761;42.680;23.312;2024-02-21T07:52:27;44.83;;;22.65;;
62696;SDS011;48761;42.680;23.312;2024-02-21T07:54:53;28.23;;;19.13;;
62696;SDS011;48761;42.680;23.312;2024-02-21T07:57:19;27.92;;;17.73;;
62696;SDS011;48761;42.680;23.312;2024-02-21T07:59:45;27.17;;;17.48;;
62696;SDS011;48761;42.680;23.312;2024-02-21T08:02:11;24.27;;;15.98;;
62696;SDS011;48761;42.680;23.312;2024-02-21T08:04:40;25.42;;;15.40;;
62696;SDS011;48761;42.680;23.312;2024-02-21T08:07:07;24.25;;;16.10;;
62696;SDS011;48761;42.680;23.312;2024-02-21T08:09:33;30.88;;;16.27;;
62696;SDS011;48761;42.680;23.312;2024-02-21T08:12:00;21.55;;;14.75;;
62696;SDS011;48761;42.680;23.312;2024-02-21T08:14:26;26.83;;;14.90;;
62696;SDS011;48761;42.680;23.312;2024-02-21T08:16:52;23.27;;;16.05;;
62696;SDS011;48761;42.680;23.312;2024-02-21T08:19:20;22.92;;;15.68;;
62696;SDS011;48761;42.680;23.312;2024-02-21T08:21:46;23.75;;;15.50;;
62696;SDS011;48761;42.680;23.312;2024-02-21T08:24:13;25.48;;;16.10;;
62696;SDS011;48761;42.680;23.312;2024-02-21T08:26:42;24.58;;;14.85;;
62696;SDS011;48761;42.680;23.312;2024-02-21T08:29:09;24.27;;;15.48;;
62696;SDS011;48761;42.680;23.312;2024-02-21T08:31:35;22.77;;;14.43;;
62696;SDS011;48761;42.680;23.312;2024-02-21T08:34:01;20.90;;;13.80;;
62696;SDS011;48761;42.680;23.312;2024-02-21T08:36:27;23.80;;;14.38;;
62696;SDS011;48761;42.680;23.312;2024-02-21T08:38:53;20.42;;;13.68;;
62696;SDS011;48761;42.680;23.312;2024-02-21T08:41:19;29.02;;;19.23;;
62696;SDS011;48761;42.680;23.312;2024-02-21T08:43:45;35.13;;;19.25;;
62696;SDS011;48761;42.680;23.312;2024-02-21T08:46:12;62.60;;;38.95;;
62696;SDS011;48761;42.680;23.312;2024-02-21T08:48:37;22.55;;;14.82;;
62696;SDS011;48761;42.680;23.312;2024-02-21T08:51:03;24.92;;;16.95;;
62696;SDS011;48761;42.680;23.312;2024-02-21T08:53:29;36.08;;;25.50;;
62696;SDS011;48761;42.680;23.312;2024-02-21T08:55:56;34.42;;;23.50;;
62696;SDS011;48761;42.680;23.312;2024-02-21T08:58:22;38.10;;;24.98;;
62696;SDS011;48761;42.680;23.312;2024-02-21T09:00:49;23.17;;;15.00;;
62696;SDS011;48761;42.680;23.312;2024-02-21T09:03:15;24.73;;;14.63;;
62696;SDS011;48761;42.680;23.312;2024-02-21T09:05:41;47.22;;;32.35;;
62696;SDS011;48761;42.680;23.312;2024-02-21T09:08:07;34.75;;;21.38;;
62696;SDS011;48761;42.680;23.312;2024-02-21T09:10:32;25.15;;;17.40;;
62696;SDS011;48761;42.680;23.312;2024-02-21T09:12:59;29.40;;;20.30;;
62696;SDS011;48761;42.680;23.312;2024-02-21T09:15:27;34.30;;;20.25;;
62696;SDS011;48761;42.680;23.312;2024-02-21T09:17:53;22.92;;;15.48;;
62696;SDS011;48761;42.680;23.312;2024-02-21T09:20:19;30.55;;;20.33;;
62696;SDS011;48761;42.680;23.312;2024-02-21T09:22:45;21.83;;;16.02;;
62696;SDS011;48761;42.680;23.312;2024-02-21T09:25:11;19.38;;;14.05;;
62696;SDS011;48761;42.680;23.312;2024-02-21T09:27:38;27.40;;;18.55;;
62696;SDS011;48761;42.680;23.312;2024-02-21T09:30:05;22.05;;;14.57;;
62696;SDS011;48761;42.680;23.312;2024-02-21T09:32:32;22.17;;;14.85;;
62696;SDS011;48761;42.680;23.312;2024-02-21T09:34:58;25.38;;;15.68;;
62696;SDS011;48761;42.680;23.312;2024-02-21T09:37:24;28.40;;;19.15;;
62696;SDS011;48761;42.680;23.312;2024-02-21T09:39:50;20.25;;;14.43;;
62696;SDS011;48761;42.680;23.312;2024-02-21T09:42:17;29.20;;;16.25;;
62696;SDS011;48761;42.680;23.312;2024-02-21T09:44:46;29.00;;;15.52;;
62696;SDS011;48761;42.680;23.312;2024-02-21T09:47:33;24.02;;;16.55;;
62696;SDS011;48761;42.680;23.312;2024-02-21T09:50:14;24.50;;;17.08;;
62696;SDS011;48761;42.680;23.312;2024-02-21T09:52:41;18.95;;;12.85;;
62696;SDS011;48761;42.680;23.312;2024-02-21T09:55:09;16.35;;;11.95;;
62696;SDS011;48761;42.680;23.312;2024-02-21T09:57:36;16.77;;;12.32;;
62696;SDS011;48761;42.680;23.312;2024-02-21T10:00:04;15.40;;;11.45;;
62696;SDS011;48761;42.680;23.312;2024-02-21T10:02:31;13.93;;;10.95;;
62696;SDS011;48761;42.680;23.312;2024-02-21T10:04:57;19.20;;;12.15;;
62696;SDS011;48761;42.680;23.312;2024-02-21T10:07:23;15.48;;;10.73;;
62696;SDS011;48761;42.680;23.312;2024-02-21T10:09:48;17.35;;;11.25;;
62696;SDS011;48761;42.680;23.312;2024-02-21T10:12:14;13.80;;;11.13;;
62696;SDS011;48761;42.680;23.312;2024-02-21T10:14:40;13.00;;;9.75;;
62696;SDS011;48761;42.680;23.312;2024-02-21T10:17:07;17.67;;;11.38;;
62696;SDS011;48761;42.680;23.312;2024-02-21T10:19:41;16.00;;;10.93;;
62696;SDS011;48761;42.680;23.312;2024-02-21T10:22:07;25.40;;;17.02;;
62696;SDS011;48761;42.680;23.312;2024-02-21T10:24:34;19.05;;;12.52;;
62696;SDS011;48761;42.680;23.312;2024-02-21T10:29:31;19.45;;;13.30;;
62696;SDS011;48761;42.680;23.312;2024-02-21T10:34:49;19.75;;;12.27;;
62696;SDS011;48761;42.680;23.312;2024-02-21T10:37:15;20.30;;;11.00;;
62696;SDS011;48761;42.680;23.312;2024-02-21T10:39:41;16.60;;;11.85;;
62696;SDS011;48761;42.680;23.312;2024-02-21T10:42:09;22.15;;;14.10;;
62696;SDS011;48761;42.680;23.312;2024-02-21T10:44:37;19.27;;;14.00;;
62696;SDS011;48761;42.680;23.312;2024-02-21T10:47:07;13.35;;;9.20;;
62696;SDS011;48761;42.680;23.312;2024-02-21T10:49:36;19.05;;;13.57;;
62696;SDS011;48761;42.680;23.312;2024-02-21T10:55:09;13.27;;;9.32;;
62696;SDS011;48761;42.680;23.312;2024-02-21T10:57:38;12.43;;;9.00;;
62696;SDS011;48761;42.680;23.312;2024-02-21T11:00:04;11.98;;;8.68;;
62696;SDS011;48761;42.680;23.312;2024-02-21T11:02:31;10.82;;;8.10;;
62696;SDS011;48761;42.680;23.312;2024-02-21T11:04:58;12.43;;;9.25;;
62696;SDS011;48761;42.680;23.312;2024-02-21T11:07:25;13.35;;;8.88;;
62696;SDS011;48761;42.680;23.312;2024-02-21T11:09:51;19.52;;;12.10;;
62696;SDS011;48761;42.680;23.312;2024-02-21T11:12:21;13.15;;;8.40;;
62696;SDS011;48761;42.680;23.312;2024-02-21T11:14:48;11.73;;;7.43;;
62696;SDS011;48761;42.680;23.312;2024-02-21T11:17:18;8.15;;;5.70;;
62696;SDS011;48761;42.680;23.312;2024-02-21T11:19:45;7.18;;;5.75;;
62696;SDS011;48761;42.680;23.312;2024-02-21T11:22:18;9.90;;;7.13;;
62696;SDS011;48761;42.680;23.312;2024-02-21T11:24:45;8.15;;;6.03;;
62696;SDS011;48761;42.680;23.312;2024-02-21T11:27:15;8.65;;;5.93;;
62696;SDS011;48761;42.680;23.312;2024-02-21T11:29:45;8.65;;;6.03;;
62696;SDS011;48761;42.680;23.312;2024-02-21T11:32:15;8.63;;;5.80;;
62696;SDS011;48761;42.680;23.312;2024-02-21T11:34:55;6.97;;;5.43;;
62696;SDS011;48761;42.680;23.312;2024-02-21T11:37:25;8.50;;;5.30;;
62696;SDS011;48761;42.680;23.312;2024-02-21T11:39:51;9.35;;;5.70;;
62696;SDS011;48761;42.680;23.312;2024-02-21T11:42:17;11.68;;;6.88;;
62696;SDS011;48761;42.680;23.312;2024-02-21T11:44:45;8.70;;;5.80;;
62696;SDS011;48761;42.680;23.312;2024-02-21T11:47:11;7.93;;;5.38;;
62696;SDS011;48761;42.680;23.312;2024-02-21T11:49:46;8.45;;;5.30;;
62696;SDS011;48761;42.680;23.312;2024-02-21T11:52:13;7.90;;;5.32;;
62696;SDS011;48761;42.680;23.312;2024-02-21T11:54:39;10.77;;;5.55;;
62696;SDS011;48761;42.680;23.312;2024-02-21T11:57:05;8.43;;;6.10;;
62696;SDS011;48761;42.680;23.312;2024-02-21T11:59:31;11.35;;;7.05;;
62696;SDS011;48761;42.680;23.312;2024-02-21T12:01:58;13.75;;;6.70;;
62696;SDS011;48761;42.680;23.312;2024-02-21T12:04:26;11.27;;;7.15;;
62696;SDS011;48761;42.680;23.312;2024-02-21T12:06:52;8.00;;;6.13;;
62696;SDS011;48761;42.680;23.312;2024-02-21T12:09:18;8.82;;;5.80;;
62696;SDS011;48761;42.680;23.312;2024-02-21T12:11:45;14.23;;;7.43;;
62696;SDS011;48761;42.680;23.312;2024-02-21T12:14:15;11.32;;;7.20;;
62696;SDS011;48761;42.680;23.312;2024-02-21T12:16:42;13.52;;;7.78;;
62696;SDS011;48761;42.680;23.312;2024-02-21T12:19:08;12.25;;;7.32;;
62696;SDS011;48761;42.680;23.312;2024-02-21T12:21:34;18.60;;;8.63;;
62696;SDS011;48761;42.680;23.312;2024-02-21T12:24:11;14.05;;;7.30;;
62696;SDS011;48761;42.680;23.312;2024-02-21T12:26:37;10.70;;;7.03;;
62696;SDS011;48761;42.680;23.312;2024-02-21T12:29:03;12.13;;;7.78;;
62696;SDS011;48761;42.680;23.312;2024-02-21T12:31:29;11.40;;;7.28;;
62696;SDS011;48761;42.680;23.312;2024-02-21T12:33:55;11.18;;;7.95;;
62696;SDS011;48761;42.680;23.312;2024-02-21T12:36:21;11.02;;;6.70;;
62696;SDS011;48761;42.680;23.312;2024-02-21T12:38:48;12.35;;;6.90;;
62696;SDS011;48761;42.680;23.312;2024-02-21T12:41:14;13.05;;;7.60;;
62696;SDS011;48761;42.680;23.312;2024-02-21T12:43:40;10.82;;;7.50;;
62696;SDS011;48761;42.680;23.312;2024-02-21T12:46:06;10.57;;;6.80;;
62696;SDS011;48761;42.680;23.312;2024-02-21T12:48:32;9.23;;;6.03;;
62696;SDS011;48761;42.680;23.312;2024-02-21T12:50:58;9.27;;;6.50;;
62696;SDS011;48761;42.680;23.312;2024-02-21T12:53:24;10.88;;;6.10;;
62696;SDS011;48761;42.680;23.312;2024-02-21T12:55:50;11.07;;;6.82;;
62696;SDS011;48761;42.680;23.312;2024-02-21T12:58:16;11.60;;;7.30;;
62696;SDS011;48761;42.680;23.312;2024-02-21T13:00:42;11.15;;;7.40;;
62696;SDS011;48761;42.680;23.312;2024-02-21T13:03:09;11.52;;;8.02;;
62696;SDS011;48761;42.680;23.312;2024-02-21T13:05:35;12.77;;;8.65;;
62696;SDS011;48761;42.680;23.312;2024-02-21T13:08:01;15.00;;;8.98;;
62696;SDS011;48761;42.680;23.312;2024-02-21T13:10:28;12.88;;;8.80;;
62696;SDS011;48761;42.680;23.312;2024-02-21T13:12:54;16.63;;;9.20;;
62696;SDS011;48761;42.680;23.312;2024-02-21T13:15:20;14.77;;;9.10;;
62696;SDS011;48761;42.680;23.312;2024-02-21T13:17:46;11.57;;;7.90;;
62696;SDS011;48761;42.680;23.312;2024-02-21T13:20:12;10.88;;;7.93;;
62696;SDS011;48761;42.680;23.312;2024-02-21T13:22:38;12.13;;;8.30;;
62696;SDS011;48761;42.680;23.312;2024-02-21T13:25:04;14.02;;;9.18;;
62696;SDS011;48761;42.680;23.312;2024-02-21T13:27:31;14.38;;;8.75;;
62696;SDS011;48761;42.680;23.312;2024-02-21T13:29:56;12.32;;;8.75;;
62696;SDS011;48761;42.680;23.312;2024-02-21T13:32:22;16.25;;;8.93;;
62696;SDS011;48761;42.680;23.312;2024-02-21T13:34:48;10.90;;;7.60;;
62696;SDS011;48761;42.680;23.312;2024-02-21T13:37:14;10.95;;;7.18;;
62696;SDS011;48761;42.680;23.312;2024-02-21T13:39:40;11.63;;;7.68;;
62696;SDS011;48761;42.680;23.312;2024-02-21T13:42:06;9.75;;;6.68;;
62696;SDS011;48761;42.680;23.312;2024-02-21T13:44:32;9.45;;;6.78;;
62696;SDS011;48761;42.680;23.312;2024-02-21T13:46:58;11.60;;;6.72;;
62696;SDS011;48761;42.680;23.312;2024-02-21T13:49:24;9.85;;;6.25;;
62696;SDS011;48761;42.680;23.312;2024-02-21T13:51:50;9.25;;;6.72;;
62696;SDS011;48761;42.680;23.312;2024-02-21T13:54:16;9.52;;;6.55;;
62696;SDS011;48761;42.680;23.312;2024-02-21T13:56:43;10.52;;;6.63;;
62696;SDS011;48761;42.680;23.312;2024-02-21T13:59:09;19.67;;;7.78;;
62696;SDS011;48761;42.680;23.312;2024-02-21T14:01:35;11.23;;;7.68;;
62696;SDS011;48761;42.680;23.312;2024-02-21T14:04:01;11.07;;;7.75;;
62696;SDS011;48761;42.680;23.312;2024-02-21T14:06:28;15.82;;;9.02;;
62696;SDS011;48761;42.680;23.312;2024-02-21T14:08:54;12.40;;;8.23;;
62696;SDS011;48761;42.680;23.312;2024-02-21T14:11:20;11.27;;;6.88;;
62696;SDS011;48761;42.680;23.312;2024-02-21T14:13:46;10.77;;;7.25;;
62696;SDS011;48761;42.680;23.312;2024-02-21T14:16:12;11.05;;;7.25;;
62696;SDS011;48761;42.680;23.312;2024-02-21T14:18:37;10.40;;;6.55;;
62696;SDS011;48761;42.680;23.312;2024-02-21T14:21:04;10.88;;;6.88;;